sensor_id;sensor_type;location;lat;lon;timestamp;temperature;humidity
21267;DHT22;10791;53.108;18.326;2022-09-01T00:01:42;11.80;99.90
21267;DHT22;10791;53.108;18.326;2022-09-01T00:06:47;11.60;99.90
21267;DHT22;10791;53.108;18.326;2022-09-01T00:11:53;11.60;99.90
21267;DHT22;10791;53.108;18.326;2022-09-01T00:17:00;11.50;99.90
21267;DHT22;10791;53.108;18.326;2022-09-01T00:22:05;11.40;99.90
21267;DHT22;10791;53.108;18.326;2022-09-01T00:27:09;11.40;99.90
21267;DHT22;10791;53.108;18.326;2022-09-01T00:32:14;11.30;99.90
21267;DHT22;10791;53.108;18.326;2022-09-01T00:37:18;11.30;99.90
21267;DHT22;10791;53.108;18.326;2022-09-01T00:42:22;11.20;99.90
21267;DHT22;10791;53.108;18.326;2022-09-01T00:47:25;11.20;99.90
21267;DHT22;10791;53.108;18.326;2022-09-01T00:52:40;11.10;99.90
21267;DHT22;10791;53.108;18.326;2022-09-01T00:57:45;11.00;99.90
21267;DHT22;10791;53.108;18.326;2022-09-01T01:02:50;10.90;99.90
21267;DHT22;10791;53.108;18.326;2022-09-01T01:08:00;10.80;99.90
21267;DHT22;10791;53.108;18.326;2022-09-01T01:13:10;10.80;99.90
21267;DHT22;10791;53.108;18.326;2022-09-01T01:18:16;10.80;99.90
21267;DHT22;10791;53.108;18.326;2022-09-01T01:23:44;10.80;99.90
21267;DHT22;10791;53.108;18.326;2022-09-01T01:28:52;10.70;99.90
21267;DHT22;10791;53.108;18.326;2022-09-01T01:33:57;10.80;99.90
21267;DHT22;10791;53.108;18.326;2022-09-01T01:39:08;10.70;99.90
21267;DHT22;10791;53.108;18.326;2022-09-01T01:44:15;10.60;99.90
21267;DHT22;10791;53.108;18.326;2022-09-01T01:49:22;10.60;99.90
21267;DHT22;10791;53.108;18.326;2022-09-01T01:54:28;10.50;99.90
21267;DHT22;10791;53.108;18.326;2022-09-01T01:59:34;10.40;99.90
21267;DHT22;10791;53.108;18.326;2022-09-01T02:04:38;10.40;99.90
21267;DHT22;10791;53.108;18.326;2022-09-01T02:09:43;10.30;99.90
21267;DHT22;10791;53.108;18.326;2022-09-01T02:14:50;10.30;99.90
21267;DHT22;10791;53.108;18.326;2022-09-01T02:19:57;10.20;99.90
21267;DHT22;10791;53.108;18.326;2022-09-01T02:25:01;10.20;99.90
21267;DHT22;10791;53.108;18.326;2022-09-01T02:30:07;10.20;99.90
21267;DHT22;10791;53.108;18.326;2022-09-01T02:35:12;10.20;99.90
21267;DHT22;10791;53.108;18.326;2022-09-01T02:40:18;10.10;99.90
21267;DHT22;10791;53.108;18.326;2022-09-01T02:45:22;10.10;99.90
21267;DHT22;10791;53.108;18.326;2022-09-01T02:50:26;10.10;99.90
21267;DHT22;10791;53.108;18.326;2022-09-01T02:55:31;10.10;99.90
21267;DHT22;10791;53.108;18.326;2022-09-01T03:00:35;10.00;99.90
21267;DHT22;10791;53.108;18.326;2022-09-01T03:05:40;10.00;99.90
21267;DHT22;10791;53.108;18.326;2022-09-01T03:10:44;9.90;99.90
21267;DHT22;10791;53.108;18.326;2022-09-01T03:15:49;9.90;99.90
21267;DHT22;10791;53.108;18.326;2022-09-01T03:20:53;9.90;99.90
21267;DHT22;10791;53.108;18.326;2022-09-01T03:25:57;9.90;99.90
21267;DHT22;10791;53.108;18.326;2022-09-01T03:31:00;9.80;99.90
21267;DHT22;10791;53.108;18.326;2022-09-01T03:36:04;9.70;99.90
21267;DHT22;10791;53.108;18.326;2022-09-01T03:41:19;9.60;99.90
21267;DHT22;10791;53.108;18.326;2022-09-01T03:46:25;9.60;99.90
21267;DHT22;10791;53.108;18.326;2022-09-01T03:51:29;9.60;99.90
21267;DHT22;10791;53.108;18.326;2022-09-01T03:56:35;9.50;99.90
21267;DHT22;10791;53.108;18.326;2022-09-01T04:01:44;9.50;99.90
21267;DHT22;10791;53.108;18.326;2022-09-01T04:06:48;9.50;99.90
21267;DHT22;10791;53.108;18.326;2022-09-01T04:11:52;9.40;99.90
21267;DHT22;10791;53.108;18.326;2022-09-01T04:16:56;9.50;99.90
21267;DHT22;10791;53.108;18.326;2022-09-01T04:22:18;9.40;99.90
21267;DHT22;10791;53.108;18.326;2022-09-01T04:27:23;9.50;99.90
21267;DHT22;10791;53.108;18.326;2022-09-01T04:32:29;9.40;99.90
21267;DHT22;10791;53.108;18.326;2022-09-01T04:37:35;9.50;99.90
21267;DHT22;10791;53.108;18.326;2022-09-01T04:42:38;9.50;99.90
21267;DHT22;10791;53.108;18.326;2022-09-01T04:47:50;9.60;99.90
21267;DHT22;10791;53.108;18.326;2022-09-01T04:52:54;9.70;99.90
21267;DHT22;10791;53.108;18.326;2022-09-01T04:58:00;9.80;99.90
21267;DHT22;10791;53.108;18.326;2022-09-01T05:03:06;9.90;99.90
21267;DHT22;10791;53.108;18.326;2022-09-01T05:08:17;10.00;99.90
21267;DHT22;10791;53.108;18.326;2022-09-01T05:13:25;10.20;99.90
21267;DHT22;10791;53.108;18.326;2022-09-01T05:18:29;10.30;99.90
21267;DHT22;10791;53.108;18.326;2022-09-01T05:23:33;10.50;99.90
21267;DHT22;10791;53.108;18.326;2022-09-01T05:28:40;10.60;99.90
21267;DHT22;10791;53.108;18.326;2022-09-01T05:33:48;10.70;99.90
21267;DHT22;10791;53.108;18.326;2022-09-01T05:38:56;10.80;99.90
21267;DHT22;10791;53.108;18.326;2022-09-01T05:44:03;10.80;99.90
21267;DHT22;10791;53.108;18.326;2022-09-01T05:49:11;10.90;99.90
21267;DHT22;10791;53.108;18.326;2022-09-01T05:54:18;11.00;99.90
21267;DHT22;10791;53.108;18.326;2022-09-01T05:59:25;11.10;99.90
21267;DHT22;10791;53.108;18.326;2022-09-01T06:04:30;11.40;99.90
21267;DHT22;10791;53.108;18.326;2022-09-01T06:09:45;11.60;99.90
21267;DHT22;10791;53.108;18.326;2022-09-01T06:14:50;11.90;99.90
21267;DHT22;10791;53.108;18.326;2022-09-01T06:19:55;12.20;99.90
21267;DHT22;10791;53.108;18.326;2022-09-01T06:24:59;12.50;99.90
21267;DHT22;10791;53.108;18.326;2022-09-01T06:30:05;12.70;99.90
21267;DHT22;10791;53.108;18.326;2022-09-01T06:35:20;13.00;99.90
21267;DHT22;10791;53.108;18.326;2022-09-01T06:40:24;13.20;99.90
21267;DHT22;10791;53.108;18.326;2022-09-01T06:45:27;13.40;99.90
21267;DHT22;10791;53.108;18.326;2022-09-01T06:50:31;13.60;99.90
21267;DHT22;10791;53.108;18.326;2022-09-01T06:55:54;14.00;99.90
21267;DHT22;10791;53.108;18.326;2022-09-01T07:00:58;14.30;99.90
21267;DHT22;10791;53.108;18.326;2022-09-01T07:06:05;14.70;99.90
21267;DHT22;10791;53.108;18.326;2022-09-01T07:11:27;15.00;99.90
21267;DHT22;10791;53.108;18.326;2022-09-01T07:16:51;15.30;99.90
21267;DHT22;10791;53.108;18.326;2022-09-01T07:22:15;15.60;99.90
21267;DHT22;10791;53.108;18.326;2022-09-01T07:27:40;15.90;99.90
21267;DHT22;10791;53.108;18.326;2022-09-01T07:32:51;16.10;99.90
21267;DHT22;10791;53.108;18.326;2022-09-01T07:38:15;16.20;99.90
21267;DHT22;10791;53.108;18.326;2022-09-01T07:43:42;16.30;99.90
21267;DHT22;10791;53.108;18.326;2022-09-01T07:48:47;16.30;99.90
21267;DHT22;10791;53.108;18.326;2022-09-01T07:54:10;16.60;99.90
21267;DHT22;10791;53.108;18.326;2022-09-01T07:59:16;17.20;99.90
21267;DHT22;10791;53.108;18.326;2022-09-01T08:04:20;17.40;99.90
21267;DHT22;10791;53.108;18.326;2022-09-01T08:09:30;17.50;99.90
21267;DHT22;10791;53.108;18.326;2022-09-01T08:14:44;17.60;99.90
21267;DHT22;10791;53.108;18.326;2022-09-01T08:19:49;17.50;99.90
21267;DHT22;10791;53.108;18.326;2022-09-01T08:24:52;17.60;99.90
21267;DHT22;10791;53.108;18.326;2022-09-01T08:29:57;17.90;99.90
21267;DHT22;10791;53.108;18.326;2022-09-01T08:35:01;18.30;99.90
21267;DHT22;10791;53.108;18.326;2022-09-01T08:40:10;18.40;99.90
21267;DHT22;10791;53.108;18.326;2022-09-01T08:45:24;18.40;99.90
21267;DHT22;10791;53.108;18.326;2022-09-01T08:50:33;18.70;99.90
21267;DHT22;10791;53.108;18.326;2022-09-01T08:55:43;19.20;99.90
21267;DHT22;10791;53.108;18.326;2022-09-01T09:00:55;19.20;99.90
21267;DHT22;10791;53.108;18.326;2022-09-01T09:16:54;19.00;99.90
21267;DHT22;10791;53.108;18.326;2022-09-01T09:22:00;19.00;99.90
21267;DHT22;10791;53.108;18.326;2022-09-01T09:27:06;19.10;99.90
21267;DHT22;10791;53.108;18.326;2022-09-01T09:32:12;19.10;99.90
21267;DHT22;10791;53.108;18.326;2022-09-01T09:37:35;19.20;99.90
21267;DHT22;10791;53.108;18.326;2022-09-01T09:42:41;19.40;99.10
21267;DHT22;10791;53.108;18.326;2022-09-01T09:47:45;19.60;99.50
21267;DHT22;10791;53.108;18.326;2022-09-01T09:52:51;19.70;99.30
21267;DHT22;10791;53.108;18.326;2022-09-01T09:58:00;19.40;98.90
21267;DHT22;10791;53.108;18.326;2022-09-01T10:03:12;19.20;99.60
21267;DHT22;10791;53.108;18.326;2022-09-01T10:13:39;19.90;98.90
21267;DHT22;10791;53.108;18.326;2022-09-01T10:18:44;19.60;99.50
21267;DHT22;10791;53.108;18.326;2022-09-01T10:23:48;19.80;98.90
21267;DHT22;10791;53.108;18.326;2022-09-01T10:29:00;20.10;95.50
21267;DHT22;10791;53.108;18.326;2022-09-01T10:34:12;20.30;95.50
21267;DHT22;10791;53.108;18.326;2022-09-01T10:39:21;19.90;93.90
21267;DHT22;10791;53.108;18.326;2022-09-01T10:44:35;20.00;95.00
21267;DHT22;10791;53.108;18.326;2022-09-01T10:54:55;20.00;93.40
21267;DHT22;10791;53.108;18.326;2022-09-01T11:16:37;20.70;91.90
21267;DHT22;10791;53.108;18.326;2022-09-01T11:33:01;20.10;89.90
21267;DHT22;10791;53.108;18.326;2022-09-01T11:38:12;19.70;91.70
21267;DHT22;10791;53.108;18.326;2022-09-01T11:43:18;19.70;91.90
21267;DHT22;10791;53.108;18.326;2022-09-01T11:48:23;19.80;92.40
21267;DHT22;10791;53.108;18.326;2022-09-01T11:53:30;19.70;90.10
21267;DHT22;10791;53.108;18.326;2022-09-01T11:58:34;19.90;90.70
21267;DHT22;10791;53.108;18.326;2022-09-01T12:03:41;20.30;91.50
21267;DHT22;10791;53.108;18.326;2022-09-01T12:08:57;20.70;91.40
21267;DHT22;10791;53.108;18.326;2022-09-01T12:14:08;21.00;90.80
21267;DHT22;10791;53.108;18.326;2022-09-01T12:19:25;20.90;87.60
21267;DHT22;10791;53.108;18.326;2022-09-01T12:24:33;20.40;90.40
21267;DHT22;10791;53.108;18.326;2022-09-01T12:29:37;20.00;91.20
21267;DHT22;10791;53.108;18.326;2022-09-01T12:35:00;19.90;94.00
21267;DHT22;10791;53.108;18.326;2022-09-01T12:40:26;19.90;92.90
21267;DHT22;10791;53.108;18.326;2022-09-01T12:45:38;19.70;91.90
21267;DHT22;10791;53.108;18.326;2022-09-01T12:50:43;19.40;92.70
21267;DHT22;10791;53.108;18.326;2022-09-01T12:56:01;19.30;90.50
21267;DHT22;10791;53.108;18.326;2022-09-01T13:01:06;19.10;90.70
21267;DHT22;10791;53.108;18.326;2022-09-01T13:06:18;18.90;89.40
21267;DHT22;10791;53.108;18.326;2022-09-01T13:11:22;18.90;89.70
21267;DHT22;10791;53.108;18.326;2022-09-01T13:16:25;19.10;91.10
21267;DHT22;10791;53.108;18.326;2022-09-01T13:21:30;19.40;91.30
21267;DHT22;10791;53.108;18.326;2022-09-01T13:26:34;19.40;90.80
21267;DHT22;10791;53.108;18.326;2022-09-01T13:31:38;19.30;91.50
21267;DHT22;10791;53.108;18.326;2022-09-01T13:37:02;19.20;92.00
21267;DHT22;10791;53.108;18.326;2022-09-01T13:42:08;19.00;91.20
21267;DHT22;10791;53.108;18.326;2022-09-01T13:47:12;19.10;92.80
21267;DHT22;10791;53.108;18.326;2022-09-01T13:52:32;19.20;90.80
21267;DHT22;10791;53.108;18.326;2022-09-01T13:57:36;19.20;93.30
21267;DHT22;10791;53.108;18.326;2022-09-01T14:02:42;18.90;95.10
21267;DHT22;10791;53.108;18.326;2022-09-01T14:07:51;18.50;95.50
21267;DHT22;10791;53.108;18.326;2022-09-01T14:12:55;18.20;96.80
21267;DHT22;10791;53.108;18.326;2022-09-01T14:18:00;17.80;99.90
21267;DHT22;10791;53.108;18.326;2022-09-01T14:23:08;17.60;99.90
21267;DHT22;10791;53.108;18.326;2022-09-01T14:28:17;17.50;99.90
21267;DHT22;10791;53.108;18.326;2022-09-01T14:33:23;17.40;99.90
21267;DHT22;10791;53.108;18.326;2022-09-01T14:38:32;17.50;99.90
21267;DHT22;10791;53.108;18.326;2022-09-01T14:43:41;17.50;99.90
21267;DHT22;10791;53.108;18.326;2022-09-01T14:48:46;17.50;99.90
21267;DHT22;10791;53.108;18.326;2022-09-01T14:53:52;17.50;99.90
21267;DHT22;10791;53.108;18.326;2022-09-01T14:58:59;17.50;99.90
21267;DHT22;10791;53.108;18.326;2022-09-01T15:04:04;17.50;99.90
21267;DHT22;10791;53.108;18.326;2022-09-01T15:09:09;17.60;99.90
21267;DHT22;10791;53.108;18.326;2022-09-01T15:14:15;17.80;99.90
21267;DHT22;10791;53.108;18.326;2022-09-01T15:19:19;17.90;99.90
21267;DHT22;10791;53.108;18.326;2022-09-01T15:24:23;18.00;99.90
21267;DHT22;10791;53.108;18.326;2022-09-01T15:29:26;18.20;99.90
21267;DHT22;10791;53.108;18.326;2022-09-01T15:34:35;18.30;99.90
21267;DHT22;10791;53.108;18.326;2022-09-01T15:39:38;18.20;99.90
21267;DHT22;10791;53.108;18.326;2022-09-01T15:44:42;18.20;99.90
21267;DHT22;10791;53.108;18.326;2022-09-01T15:49:50;18.20;99.90
21267;DHT22;10791;53.108;18.326;2022-09-01T15:54:54;18.20;99.90
21267;DHT22;10791;53.108;18.326;2022-09-01T15:59:58;18.20;99.90
21267;DHT22;10791;53.108;18.326;2022-09-01T16:05:01;18.20;99.90
21267;DHT22;10791;53.108;18.326;2022-09-01T16:10:06;18.10;99.90
21267;DHT22;10791;53.108;18.326;2022-09-01T16:15:15;18.00;99.90
21267;DHT22;10791;53.108;18.326;2022-09-01T16:20:22;18.00;99.90
21267;DHT22;10791;53.108;18.326;2022-09-01T16:25:32;17.90;99.90
21267;DHT22;10791;53.108;18.326;2022-09-01T16:30:38;17.90;99.90
21267;DHT22;10791;53.108;18.326;2022-09-01T16:35:52;17.80;99.90
21267;DHT22;10791;53.108;18.326;2022-09-01T16:52:21;17.70;99.90
21267;DHT22;10791;53.108;18.326;2022-09-01T17:02:49;17.40;99.90
21267;DHT22;10791;53.108;18.326;2022-09-01T17:08:17;17.10;99.90
21267;DHT22;10791;53.108;18.326;2022-09-01T17:13:38;16.90;99.90
21267;DHT22;10791;53.108;18.326;2022-09-01T17:18:46;16.60;99.90
21267;DHT22;10791;53.108;18.326;2022-09-01T17:24:02;16.60;99.90
21267;DHT22;10791;53.108;18.326;2022-09-01T17:29:22;16.50;99.90
21267;DHT22;10791;53.108;18.326;2022-09-01T17:34:55;16.40;99.90
21267;DHT22;10791;53.108;18.326;2022-09-01T17:40:26;16.20;99.90
21267;DHT22;10791;53.108;18.326;2022-09-01T17:45:43;16.10;99.90
21267;DHT22;10791;53.108;18.326;2022-09-01T17:51:08;15.90;99.90
21267;DHT22;10791;53.108;18.326;2022-09-01T17:56:40;15.80;99.90
21267;DHT22;10791;53.108;18.326;2022-09-01T18:12:36;15.20;99.90
21267;DHT22;10791;53.108;18.326;2022-09-01T18:17:53;15.00;99.90
21267;DHT22;10791;53.108;18.326;2022-09-01T18:23:07;14.80;99.90
21267;DHT22;10791;53.108;18.326;2022-09-01T18:28:15;14.60;99.90
21267;DHT22;10791;53.108;18.326;2022-09-01T18:33:36;14.40;99.90
21267;DHT22;10791;53.108;18.326;2022-09-01T18:39:00;14.20;99.90
21267;DHT22;10791;53.108;18.326;2022-09-01T19:00:46;13.50;99.90
21267;DHT22;10791;53.108;18.326;2022-09-01T19:11:23;13.20;99.90
21267;DHT22;10791;53.108;18.326;2022-09-01T19:16:52;13.10;99.90
21267;DHT22;10791;53.108;18.326;2022-09-01T19:22:00;13.00;99.90
21267;DHT22;10791;53.108;18.326;2022-09-01T19:27:15;12.90;99.90
21267;DHT22;10791;53.108;18.326;2022-09-01T19:32:23;12.80;99.90
21267;DHT22;10791;53.108;18.326;2022-09-01T19:37:28;12.70;99.90
21267;DHT22;10791;53.108;18.326;2022-09-01T19:42:38;12.60;99.90
21267;DHT22;10791;53.108;18.326;2022-09-01T19:53:10;12.40;99.90
21267;DHT22;10791;53.108;18.326;2022-09-01T19:58:25;12.30;99.90
21267;DHT22;10791;53.108;18.326;2022-09-01T20:08:53;12.10;99.90
21267;DHT22;10791;53.108;18.326;2022-09-01T20:24:34;11.90;99.90
21267;DHT22;10791;53.108;18.326;2022-09-01T20:29:46;12.00;99.90
21267;DHT22;10791;53.108;18.326;2022-09-01T20:34:57;11.90;99.90
21267;DHT22;10791;53.108;18.326;2022-09-01T20:40:22;11.90;99.90
21267;DHT22;10791;53.108;18.326;2022-09-01T20:45:29;11.70;99.90
21267;DHT22;10791;53.108;18.326;2022-09-01T20:50:39;11.60;99.90
21267;DHT22;10791;53.108;18.326;2022-09-01T20:56:05;11.50;99.90
21267;DHT22;10791;53.108;18.326;2022-09-01T21:01:34;11.40;99.90
21267;DHT22;10791;53.108;18.326;2022-09-01T21:12:08;11.20;99.90
21267;DHT22;10791;53.108;18.326;2022-09-01T21:22:27;11.00;99.90
21267;DHT22;10791;53.108;18.326;2022-09-01T21:27:37;10.90;99.90
21267;DHT22;10791;53.108;18.326;2022-09-01T21:32:42;10.90;99.90
21267;DHT22;10791;53.108;18.326;2022-09-01T21:37:46;10.80;99.90
21267;DHT22;10791;53.108;18.326;2022-09-01T21:42:53;10.80;99.90
21267;DHT22;10791;53.108;18.326;2022-09-01T21:47:58;10.90;99.90
21267;DHT22;10791;53.108;18.326;2022-09-01T21:53:03;10.90;99.90
21267;DHT22;10791;53.108;18.326;2022-09-01T21:58:07;10.80;99.90
21267;DHT22;10791;53.108;18.326;2022-09-01T22:03:11;10.80;99.90
21267;DHT22;10791;53.108;18.326;2022-09-01T22:08:15;10.80;99.90
21267;DHT22;10791;53.108;18.326;2022-09-01T22:13:21;10.70;99.90
21267;DHT22;10791;53.108;18.326;2022-09-01T22:18:25;10.60;99.90
21267;DHT22;10791;53.108;18.326;2022-09-01T22:23:29;10.40;99.90
21267;DHT22;10791;53.108;18.326;2022-09-01T22:28:33;10.30;99.90
21267;DHT22;10791;53.108;18.326;2022-09-01T22:33:36;10.20;99.90
21267;DHT22;10791;53.108;18.326;2022-09-01T22:38:40;10.20;99.90
21267;DHT22;10791;53.108;18.326;2022-09-01T22:43:43;10.10;99.90
21267;DHT22;10791;53.108;18.326;2022-09-01T22:48:47;10.00;99.90
21267;DHT22;10791;53.108;18.326;2022-09-01T22:53:52;9.80;99.90
21267;DHT22;10791;53.108;18.326;2022-09-01T22:58:58;9.80;99.90
21267;DHT22;10791;53.108;18.326;2022-09-01T23:04:07;9.70;99.90
21267;DHT22;10791;53.108;18.326;2022-09-01T23:09:11;9.60;99.90
21267;DHT22;10791;53.108;18.326;2022-09-01T23:14:14;9.50;99.90
21267;DHT22;10791;53.108;18.326;2022-09-01T23:19:21;9.40;99.90
21267;DHT22;10791;53.108;18.326;2022-09-01T23:24:25;9.40;99.90
21267;DHT22;10791;53.108;18.326;2022-09-01T23:29:28;9.40;99.90
21267;DHT22;10791;53.108;18.326;2022-09-01T23:34:32;9.30;99.90
21267;DHT22;10791;53.108;18.326;2022-09-01T23:39:35;9.20;99.90
21267;DHT22;10791;53.108;18.326;2022-09-01T23:44:40;9.10;99.90
21267;DHT22;10791;53.108;18.326;2022-09-01T23:49:43;9.00;99.90
21267;DHT22;10791;53.108;18.326;2022-09-01T23:54:47;8.90;99.90
21267;DHT22;10791;53.108;18.326;2022-09-01T23:59:55;8.80;99.90
